.
WxDataArchive / Data Records for 2010-04-02
2010-04-01 April 2010 2010-04-03

Data Records for Friday, 02 April 2010

Time	Temp	Chill	HIndex	Humid	Dewpt	 Wind 	HiWind	WindDir	Rain 	Barom 
-----	----	-----	------	-----	-----	------	------	-------	-----	----- 
00:00	65.2	65.2	65.2	60	51.0	0	1	90	0.00	29.833 
00:05	64.8	64.8	64.8	61	51.0	0	1	90	0.00	29.833 
00:10	64.5	64.5	64.5	61	50.7	0	1	90	0.00	29.833 
00:15	64.2	64.2	64.2	62	50.9	0	1	90	0.00	29.830 
00:20	64.0	64.0	64.0	62	50.7	0	2	90	0.00	29.830 
00:25	63.9	63.9	63.9	62	50.6	0	1	90	0.00	29.830 
00:30	63.5	63.5	63.5	62	50.2	0	1	90	0.00	29.833 
00:35	63.4	63.4	63.4	63	50.6	0	2	90	0.00	29.833 
00:40	63.2	63.2	63.2	63	50.4	0	2	90	0.00	29.833 
00:45	63.1	63.1	63.1	63	50.3	0	2	90	0.00	29.836 
00:50	62.9	62.9	62.9	63	50.1	0	2	90	0.00	29.836 
00:55	62.7	62.7	62.7	63	49.9	0	4	90	0.00	29.836 
01:00	62.7	62.7	62.7	63	49.9	0	3	225	0.00	29.837 
01:05	62.9	62.9	62.9	62	49.7	0	2	248	0.00	29.837 
01:10	62.9	62.9	62.9	62	49.7	0	3	248	0.00	29.837 
01:15	63.1	63.1	63.1	61	49.4	1	3	248	0.00	29.833 
01:20	63.1	63.1	63.1	61	49.4	1	6	248	0.00	29.833 
01:25	63.2	63.2	63.2	60	49.1	1	3	248	0.00	29.833 
01:30	63.1	63.1	63.1	60	49.0	0	3	248	0.00	29.839 
01:35	63.1	63.1	63.1	60	49.0	0	2	248	0.00	29.839 
01:40	63.1	63.1	63.1	59	48.5	0	2	248	0.00	29.839 
01:45	63.1	63.1	63.1	59	48.5	1	3	248	0.00	29.837 
01:50	63.1	63.1	63.1	58	48.1	0	3	248	0.00	29.837 
01:55	63.1	63.1	63.1	58	48.1	0	2	248	0.00	29.837 
02:00	62.9	62.9	62.9	59	48.3	0	3	248	0.00	29.839 
02:05	62.7	62.7	62.7	58	47.7	1	4	248	0.00	29.839 
02:10	62.7	62.7	62.7	58	47.7	1	3	248	0.00	29.839 
02:15	62.7	62.7	62.7	58	47.7	1	3	270	0.00	29.836 
02:20	62.7	62.7	62.7	58	47.7	0	1	270	0.00	29.836 
02:25	62.4	62.4	62.4	58	47.4	0	1	270	0.00	29.836 
02:30	62.3	62.3	62.3	59	47.8	0	2	315	0.00	29.832 
02:35	62.0	62.0	62.0	59	47.5	0	1	315	0.00	29.832 
02:40	62.0	62.0	62.0	58	47.0	0	2	315	0.00	29.832 
02:45	62.1	62.1	62.1	58	47.1	0	2	292	0.00	29.829 
02:50	62.1	62.1	62.1	58	47.1	1	2	292	0.00	29.829 
02:55	62.3	62.3	62.3	58	47.3	1	3	248	0.00	29.829 
03:00	62.3	62.3	62.3	58	47.3	1	3	248	0.00	29.829 
03:05	62.3	62.3	62.3	57	46.9	0	3	270	0.00	29.829 
03:10	62.1	62.1	62.1	57	46.7	0	5	270	0.00	29.829 
03:15	62.1	62.1	62.1	57	46.7	0	2	270	0.00	29.829 
03:20	62.0	62.0	62.0	57	46.6	0	2	270	0.00	29.829 
03:25	61.8	61.8	61.8	57	46.4	0	2	270	0.00	29.829 
03:30	61.6	61.6	61.6	57	46.2	1	3	270	0.00	29.828 
03:35	61.5	61.5	61.5	57	46.1	0	2	270	0.00	29.828 
03:40	61.3	61.3	61.3	58	46.4	0	1	270	0.00	29.828 
03:45	61.0	61.0	61.0	58	46.1	0	1	270	0.00	29.824 
03:50	60.7	60.7	60.7	59	46.3	0	1	270	0.00	29.824 
03:55	60.5	60.5	60.5	59	46.1	0	1	270	0.00	29.824 
04:00	60.2	60.2	60.2	60	46.3	0	2	270	0.00	29.824 
04:05	59.9	59.9	59.9	60	46.0	0	2	270	0.00	29.824 
04:10	59.6	59.6	59.6	61	46.1	0	1	270	0.00	29.824 
04:15	59.3	59.3	59.3	61	45.8	0	2	270	0.00	29.833 
04:20	59.0	59.0	59.0	62	46.0	0	1	270	0.00	29.833 
04:25	58.9	58.9	58.9	62	45.9	0	0	---	0.00	29.833 
04:30	58.6	58.6	58.6	63	46.0	0	0	---	0.00	29.834 
04:35	58.3	58.3	58.3	63	45.8	0	0	---	0.00	29.834 
04:40	57.8	57.8	57.8	64	45.7	0	0	---	0.00	29.834 
04:45	57.3	57.3	57.3	65	45.6	0	0	---	0.00	29.835 
04:50	56.9	56.9	56.9	66	45.7	0	0	---	0.00	29.835 
04:55	56.5	56.5	56.5	66	45.3	0	0	---	0.00	29.835 
05:00	56.0	56.0	56.0	68	45.6	0	0	---	0.00	29.840 
05:05	55.6	55.6	55.6	68	45.2	0	0	---	0.00	29.840 
05:10	55.3	55.3	55.3	69	45.3	0	0	---	0.00	29.840 
05:15	55.1	55.1	55.1	70	45.5	0	0	---	0.00	29.851 
05:20	54.8	54.8	54.8	71	45.6	0	0	---	0.00	29.851 
05:25	54.7	54.7	54.7	71	45.5	0	0	---	0.00	29.851 
05:30	54.5	54.5	54.5	72	45.7	0	0	---	0.00	29.853 
05:35	54.2	54.2	54.2	72	45.4	0	0	---	0.00	29.853 
05:40	53.9	53.9	53.9	73	45.4	0	0	---	0.00	29.853 
05:45	53.5	53.5	53.5	73	45.1	0	0	---	0.00	29.856 
05:50	53.2	53.2	53.2	75	45.5	0	0	---	0.00	29.856 
05:55	52.9	52.9	52.9	75	45.2	0	0	---	0.00	29.856 
06:00	52.6	52.6	52.6	76	45.3	0	0	---	0.00	29.860 
06:05	52.3	52.3	52.3	77	45.3	0	0	---	0.00	29.860 
06:10	52.2	52.2	52.2	77	45.2	0	0	---	0.00	29.860 
06:15	52.0	52.0	52.0	77	45.0	0	0	---	0.00	29.871 
06:20	52.0	52.0	52.0	78	45.4	0	0	---	0.00	29.871 
06:25	52.2	52.2	52.2	78	45.5	0	0	---	0.00	29.871 
06:30	52.2	52.2	52.2	78	45.5	0	0	---	0.00	29.878 
06:35	52.2	52.2	52.2	78	45.5	0	0	---	0.00	29.878 
06:40	52.0	52.0	52.0	78	45.4	0	0	---	0.00	29.878 
06:45	52.3	52.3	52.3	77	45.3	0	0	---	0.00	29.885 
06:50	52.6	52.6	52.6	76	45.3	0	1	270	0.00	29.885 
06:55	52.9	52.9	52.9	75	45.2	0	0	---	0.00	29.885 
07:00	53.2	53.2	53.2	74	45.1	0	0	---	0.00	29.885 
07:05	53.2	53.2	53.2	74	45.1	0	0	---	0.00	29.885 
07:10	53.1	53.1	53.1	74	45.0	0	0	---	0.00	29.885 
07:15	52.9	52.9	52.9	74	44.8	0	0	---	0.00	29.893 
07:20	52.6	52.6	52.6	75	44.9	0	0	---	0.00	29.893 
07:25	52.5	52.5	52.5	75	44.8	0	1	270	0.00	29.893 
07:30	52.3	52.3	52.3	76	45.0	0	0	---	0.00	29.903 
07:35	52.5	52.5	52.5	76	45.2	0	1	270	0.00	29.903 
07:40	52.8	52.8	52.8	76	45.4	0	1	270	0.00	29.903 
07:45	53.2	53.2	53.2	74	45.1	0	2	270	0.00	29.905 
07:50	53.6	53.6	53.6	73	45.2	0	1	270	0.00	29.905 
07:55	54.1	54.1	54.1	72	45.3	0	1	270	0.00	29.905 
08:00	54.5	54.5	54.5	71	45.3	0	1	270	0.00	29.909 
08:05	55.0	55.0	55.0	70	45.4	0	1	270	0.00	29.909 
08:10	55.4	55.4	55.4	68	45.0	0	1	270	0.00	29.909 
08:15	56.0	56.0	56.0	68	45.6	0	1	270	0.00	29.923 
08:20	56.5	56.5	56.5	67	45.7	0	1	270	0.00	29.923 
08:25	56.7	56.7	56.7	66	45.5	0	1	270	0.00	29.923 
08:30	57.0	57.0	57.0	65	45.4	0	3	270	0.00	29.933 
08:35	57.5	57.5	57.5	64	45.4	0	1	270	0.00	29.933 
08:40	58.0	58.0	58.0	63	45.5	0	3	248	0.00	29.933 
08:45	58.6	58.6	58.6	62	45.6	0	1	248	0.00	29.934 
08:50	59.0	59.0	59.0	60	45.1	0	2	248	0.00	29.934 
08:55	59.5	59.5	59.5	60	45.6	0	2	270	0.00	29.934 
09:00	59.9	59.9	59.9	59	45.5	0	2	270	0.00	29.932 
09:05	60.7	60.7	60.7	58	45.8	1	3	270	0.00	29.932 
09:10	61.5	61.5	61.5	57	46.1	1	4	248	0.00	29.932 
09:15	62.1	62.1	62.1	55	45.7	1	7	270	0.00	29.923 
09:20	62.7	62.7	62.7	54	45.8	1	6	248	0.00	29.923 
09:25	63.2	63.2	63.2	52	45.3	2	6	248	0.00	29.923 
09:30	63.7	63.7	63.7	52	45.7	1	4	248	0.00	29.915 
09:35	64.2	64.2	64.2	51	45.7	2	5	292	0.00	29.915 
09:40	64.8	64.8	64.8	50	45.7	1	3	248	0.00	29.915 
09:45	65.6	65.6	65.6	48	45.4	2	5	248	0.00	29.913 
09:50	66.4	66.4	66.4	46	45.0	3	7	270	0.00	29.913 
09:55	66.8	66.8	66.8	46	45.3	2	7	248	0.00	29.913 
10:00	67.1	67.1	67.1	46	45.6	1	6	270	0.00	29.915 
10:05	67.1	67.1	67.1	44	44.5	2	7	248	0.00	29.915 
10:10	67.1	67.1	67.1	46	45.6	2	5	248	0.00	29.915 
10:15	67.1	67.1	67.1	45	45.0	2	5	248	0.00	29.915 
10:20	67.4	67.4	67.4	44	44.7	3	6	248	0.00	29.915 
10:25	67.8	67.8	67.8	44	45.1	3	7	248	0.00	29.915 
10:30	68.1	68.1	68.1	44	45.4	2	7	270	0.00	29.918 
10:35	68.6	68.6	68.6	43	45.2	2	11	248	0.00	29.918 
10:40	68.9	68.9	68.9	43	45.5	3	9	248	0.00	29.918 
10:45	68.9	68.9	68.9	42	44.9	3	6	248	0.00	29.919 
10:50	69.1	69.1	69.1	43	45.7	2	6	248	0.00	29.919 
10:55	69.3	69.3	69.3	43	45.8	2	6	248	0.00	29.919 
11:00	69.8	69.8	69.8	42	45.7	2	6	248	0.00	29.924 
11:05	70.6	70.6	70.6	43	47.0	2	6	248	0.00	29.924 
11:10	71.1	71.1	71.1	40	45.5	3	7	248	0.00	29.924 
11:15	71.3	71.3	71.3	40	45.7	3	6	248	0.00	29.924 
11:20	71.3	71.3	71.3	41	46.4	2	6	248	0.00	29.924 
11:25	71.5	71.5	71.5	41	46.5	1	5	248	0.00	29.924 
11:30	71.8	71.8	71.8	40	46.2	2	5	248	0.00	29.928 
11:35	72.0	72.0	72.0	39	45.7	2	5	270	0.00	29.928 
11:40	72.1	72.1	72.1	40	46.4	2	5	270	0.00	29.928 
11:45	72.1	72.1	72.1	39	45.8	2	10	248	0.00	29.930 
11:50	72.3	72.3	72.3	39	45.9	3	7	248	0.00	29.930 
11:55	72.5	72.5	72.5	38	45.4	4	13	248	0.00	29.930 
12:00	72.8	72.8	72.8	39	46.4	3	7	248	0.00	29.927 
12:05	73.5	73.5	73.5	39	47.0	2	6	248	0.00	29.927 
12:10	73.9	73.9	73.9	38	46.7	3	12	248	0.00	29.927 
12:15	74.2	74.2	74.2	38	46.9	3	7	248	0.00	29.928 
12:20	74.4	74.4	74.4	35	44.9	3	6	248	0.00	29.928 
12:25	74.7	74.7	74.7	37	46.7	3	10	248	0.00	29.928 
12:30	75.6	75.6	77.6	38	48.2	2	6	270	0.00	29.925 
12:35	75.8	75.8	77.5	34	45.4	3	11	248	0.00	29.925 
12:40	75.8	75.8	77.3	32	43.8	3	10	270	0.00	29.925 
12:45	76.0	76.0	77.6	35	46.4	3	10	225	0.00	29.921 
12:50	76.5	76.5	77.8	35	46.8	2	5	248	0.00	29.921 
12:55	76.8	76.8	77.7	32	44.7	3	13	225	0.00	29.921 
13:00	76.5	76.5	77.5	30	42.7	4	12	248	0.00	29.911 
13:05	76.3	76.3	77.5	31	43.4	4	10	248	0.00	29.911 
13:10	76.5	76.5	77.6	32	44.4	3	7	248	0.00	29.911 
13:15	77.0	77.0	77.8	32	44.9	3	7	248	0.00	29.909 
13:20	77.4	77.4	78.1	34	46.8	3	10	225	0.00	29.909 
13:25	77.6	77.6	78.0	31	44.5	2	7	112	0.00	29.909 
13:30	77.2	77.2	77.8	30	43.3	3	9	248	0.00	29.902 
13:35	77.7	77.7	78.2	33	46.3	2	6	270	0.00	29.902 
13:40	78.5	78.5	78.4	30	44.5	2	7	248	0.00	29.902 
13:45	79.0	79.0	78.6	30	44.9	2	7	270	0.00	29.894 
13:50	78.8	78.8	78.3	27	42.0	2	10	248	0.00	29.894 
13:55	79.0	79.0	78.5	28	43.1	3	7	248	0.00	29.894 
14:00	79.4	79.4	78.8	29	44.3	2	8	90	0.00	29.887 
14:05	79.4	79.4	78.8	29	44.3	3	9	68	0.00	29.887 
14:10	79.0	79.0	78.5	28	43.1	3	7	270	0.00	29.887 
14:15	79.0	79.0	78.6	29	44.0	3	6	270	0.00	29.890 
14:20	79.2	79.2	78.5	26	41.3	3	13	248	0.00	29.890 
14:25	79.2	79.2	78.5	26	41.3	3	10	112	0.00	29.890 
14:30	79.0	79.0	78.4	27	42.1	3	10	292	0.00	29.891 
14:35	78.8	78.8	78.4	28	42.9	2	9	90	0.00	29.891 
14:40	78.6	78.6	78.4	29	43.7	3	9	90	0.00	29.891 
14:45	78.6	78.6	78.2	27	41.8	3	7	270	0.00	29.884 
14:50	79.0	79.0	78.3	25	40.2	3	12	112	0.00	29.884 
14:55	79.4	79.4	78.6	26	41.5	3	10	90	0.00	29.884 
15:00	79.4	79.4	78.5	25	40.5	3	9	248	0.00	29.881 
15:05	79.0	79.0	78.4	26	41.2	2	7	248	0.00	29.881 
15:10	79.6	79.6	78.9	29	44.5	1	4	248	0.00	29.881 
15:15	79.8	79.8	78.9	27	42.8	2	5	0	0.00	29.879 
15:20	79.6	79.6	78.8	27	42.7	2	9	248	0.00	29.879 
15:25	80.1	80.1	79.1	28	44.0	2	7	90	0.00	29.879 
15:30	80.3	80.3	79.2	27	43.2	1	6	248	0.00	29.877 
15:35	80.3	80.3	79.1	26	42.3	2	6	68	0.00	29.877 
15:40	80.1	80.1	79.0	26	42.1	3	7	90	0.00	29.877 
15:45	80.1	80.1	79.0	26	42.1	2	7	248	0.00	29.874 
15:50	80.7	80.7	79.2	24	40.5	3	10	315	0.00	29.874 
15:55	80.9	80.9	79.4	25	41.8	3	9	270	0.00	29.874 
16:00	80.7	80.7	79.2	24	40.5	3	11	270	0.00	29.869 
16:05	80.9	80.9	79.4	25	41.8	3	10	248	0.00	29.869 
16:10	80.9	80.9	79.3	23	39.6	4	10	248	0.00	29.869 
16:15	80.7	80.7	79.3	25	41.6	3	7	248	0.00	29.866 
16:20	80.5	80.5	79.2	26	42.4	2	8	270	0.00	29.866 
16:25	80.5	80.5	79.3	27	43.4	3	10	0	0.00	29.866 
16:30	79.9	79.9	78.8	25	40.9	3	10	68	0.00	29.865 
16:35	79.4	79.4	78.5	24	39.4	2	9	248	0.00	29.865 
16:40	79.0	79.0	78.3	25	40.2	2	7	248	0.00	29.865 
16:45	78.6	78.6	78.1	25	39.8	3	9	270	0.00	29.866 
16:50	78.8	78.8	78.3	26	41.0	2	9	248	0.00	29.866 
16:55	79.0	79.0	78.4	26	41.2	2	7	225	0.00	29.866 
17:00	78.8	78.8	78.3	26	41.0	3	8	248	0.00	29.860 
17:05	78.6	78.6	78.2	26	40.8	2	7	45	0.00	29.860 
17:10	78.5	78.5	78.1	26	40.7	2	6	0	0.00	29.860 
17:15	78.3	78.3	77.9	25	39.6	3	7	68	0.00	29.867 
17:20	78.1	78.1	77.8	25	39.4	2	11	248	0.00	29.867 
17:25	77.9	77.9	77.8	26	40.2	2	5	248	0.00	29.867 
17:30	78.1	78.1	77.9	26	40.4	2	5	248	0.00	29.865 
17:35	78.1	78.1	78.0	27	41.4	2	7	90	0.00	29.865 
17:40	78.1	78.1	78.0	28	42.3	1	5	248	0.00	29.865 
17:45	77.9	77.9	77.9	27	41.2	2	6	112	0.00	29.869 
17:50	77.7	77.7	77.8	28	42.0	2	6	112	0.00	29.869 
17:55	77.6	77.6	77.8	28	41.9	2	5	90	0.00	29.869 
18:00	77.2	77.2	77.6	27	40.6	1	4	90	0.00	29.866 
18:05	77.0	77.0	77.6	29	42.3	1	3	315	0.00	29.866 
18:10	76.8	76.8	77.5	29	42.1	1	6	90	0.00	29.866 
18:15	76.8	76.8	77.6	30	43.0	1	3	292	0.00	29.867 
18:20	76.8	76.8	77.5	28	41.2	1	5	45	0.00	29.867 
18:25	76.8	76.8	77.5	29	42.1	1	4	45	0.00	29.867 
18:30	76.7	76.7	77.5	29	42.0	1	3	338	0.00	29.863 
18:35	76.5	76.5	77.3	27	40.0	1	5	338	0.00	29.863 
18:40	76.3	76.3	77.2	28	40.8	0	3	270	0.00	29.863 
18:45	76.1	76.1	77.2	29	41.5	0	3	338	0.00	29.864 
18:50	76.0	76.0	77.3	30	42.3	0	2	248	0.00	29.864 
18:55	75.8	75.8	77.2	30	42.1	0	2	68	0.00	29.864 
19:00	75.6	75.6	77.1	30	42.0	0	2	68	0.00	29.863 
19:05	75.4	75.4	77.0	29	40.9	0	2	68	0.00	29.863 
19:10	75.4	75.4	77.0	29	40.9	0	2	68	0.00	29.863 
19:15	75.6	75.6	77.1	29	41.1	1	7	90	0.00	29.861 
19:20	75.4	75.4	77.1	30	41.8	0	3	112	0.00	29.861 
19:25	75.3	75.3	77.1	31	42.6	0	3	112	0.00	29.861 
19:30	74.9	74.9	74.9	31	42.2	0	2	112	0.00	29.858 
19:35	74.6	74.6	74.6	30	41.1	1	4	112	0.00	29.858 
19:40	74.4	74.4	74.4	29	40.1	0	2	112	0.00	29.858 
19:45	74.4	74.4	74.4	29	40.1	1	2	112	0.00	29.857 
19:50	74.2	74.2	74.2	29	39.9	0	2	135	0.00	29.857 
19:55	74.0	74.0	74.0	29	39.7	1	3	135	0.00	29.857 
20:00	73.9	73.9	73.9	29	39.6	1	5	90	0.00	29.854 
20:05	73.7	73.7	73.7	30	40.3	1	4	135	0.00	29.854 
20:10	73.5	73.5	73.5	29	39.3	1	3	135	0.00	29.854 
20:15	73.3	73.3	73.3	29	39.1	1	5	112	0.00	29.844 
20:20	73.2	73.2	73.2	29	39.0	1	4	90	0.00	29.844 
20:25	73.2	73.2	73.2	29	39.0	1	3	135	0.00	29.844 
20:30	73.0	73.0	73.0	29	38.9	2	6	112	0.00	29.841 
20:35	73.0	73.0	73.0	29	38.9	1	4	135	0.00	29.841 
20:40	72.8	72.8	72.8	30	39.5	1	5	135	0.00	29.841 
20:45	72.3	72.3	72.3	30	39.1	1	4	135	0.00	29.839 
20:50	72.0	72.0	72.0	31	39.7	1	2	112	0.00	29.839 
20:55	71.5	71.5	71.5	32	40.1	1	3	90	0.00	29.839 
21:00	71.1	71.1	71.1	32	39.7	1	3	112	0.00	29.841 
21:05	70.8	70.8	70.8	33	40.3	0	2	112	0.00	29.841 
21:10	70.4	70.4	70.4	34	40.7	0	1	135	0.00	29.841 
21:15	70.1	70.1	70.1	34	40.4	0	1	135	0.00	29.835 
21:20	69.6	69.6	69.6	35	40.7	0	1	135	0.00	29.835 
21:25	69.3	69.3	69.3	35	40.5	0	2	112	0.00	29.835 
21:30	69.1	69.1	69.1	36	41.0	0	2	112	0.00	29.836 
21:35	68.8	68.8	68.8	36	40.7	0	2	112	0.00	29.836 
21:40	68.6	68.6	68.6	37	41.3	0	1	112	0.00	29.836 
21:45	68.4	68.4	68.4	36	40.4	0	2	112	0.00	29.836 
21:50	68.3	68.3	68.3	36	40.3	0	2	135	0.00	29.836 
21:55	68.3	68.3	68.3	36	40.3	1	2	135	0.00	29.836 
22:00	68.1	68.1	68.1	37	40.8	1	2	135	0.00	29.835 
22:05	68.1	68.1	68.1	37	40.8	0	2	45	0.00	29.835 
22:10	67.9	67.9	67.9	37	40.7	1	2	135	0.00	29.835 
22:15	67.8	67.8	67.8	37	40.6	0	2	90	0.00	29.832 
22:20	67.8	67.8	67.8	38	41.3	1	3	90	0.00	29.832 
22:25	67.8	67.8	67.8	38	41.3	1	5	90	0.00	29.832 
22:30	67.8	67.8	67.8	38	41.3	1	4	135	0.00	29.826 
22:35	67.8	67.8	67.8	39	41.9	1	5	112	0.00	29.826 
22:40	67.8	67.8	67.8	39	41.9	1	4	112	0.00	29.826 
22:45	68.1	68.1	68.1	39	42.2	2	5	135	0.00	29.820 
22:50	68.1	68.1	68.1	38	41.5	2	4	135	0.00	29.820 
22:55	68.4	68.4	68.4	38	41.8	2	5	90	0.00	29.820 
23:00	68.4	68.4	68.4	38	41.8	1	4	135	0.00	29.818 
23:05	68.6	68.6	68.6	37	41.3	1	4	112	0.00	29.818 
23:10	68.8	68.8	68.8	37	41.5	1	4	112	0.00	29.818 
23:15	68.9	68.9	68.9	37	41.5	2	4	90	0.00	29.813 
23:20	69.1	69.1	69.1	36	41.0	2	5	112	0.00	29.813 
23:25	69.1	69.1	69.1	36	41.0	1	3	90	0.00	29.813 
23:30	69.1	69.1	69.1	36	41.0	1	3	68	0.00	29.813 
23:35	68.9	68.9	68.9	37	41.5	1	3	90	0.00	29.813 
23:40	68.6	68.6	68.6	37	41.3	1	3	90	0.00	29.813 
23:45	68.3	68.3	68.3	38	41.7	1	3	135	0.00	29.811 
23:50	67.9	67.9	67.9	39	42.0	0	2	135	0.00	29.811 
23:55	67.3	67.3	67.3	40	42.1	0	1	135	0.00	29.811 

CoCoRaHS
IN-AL-39
A2 Web Hosting
Creative Commons License
GoDaddy
search engine by freefind advanced

loaded 2018-11-19 18:45:36 • last modified 2010-11-18 10:43:29
Privacy PolicyDisclaimer
• wx.awcolley.com is powered by PmWiki v.2002016 •
• all content (unless otherwise noted) © 2018 A W Colley